Amherst, Nebraska
Current Conditions -  °F | °C
As of 12:15 PM on Thursday 29 Jan 2015 (Local Time) from KEAR Reporting Station
Scattered Clouds Scattered Clouds  
Wind Chill: 32°   Ceiling: Unl
Heat Index: 41°   Visibility: 10mi
Dew Point: 23°   Wind: 18mph
Humidity: 49%   Direction: 350°N
Pressure: 30.47"   Gusts: 26mph
Location:  40.77°N, 99.27°W
Report Text: KEAR 291815Z 35016G23KT 10SM SCT034 05/M05 A3047 RMK AO1
Loading
Personal Weather Stations






























Interactive Weather Map New forecast layout! Learn more

10-Day Weather Forecast

Advertisements
Track Severe Weather on mobile